createdAt,value
2018-05-14T00:59:45.068Z,36.67
2018-05-14T01:02:12.560Z,28.93
2018-05-14T01:04:40.066Z,26.13
2018-05-14T01:07:07.863Z,23.83
2018-05-14T01:09:35.497Z,35.33
2018-05-14T01:12:03.004Z,23.83
2018-05-14T01:14:30.515Z,24.80
2018-05-14T01:16:59.018Z,36.20
2018-05-14T01:19:27.490Z,23.63
2018-05-14T01:21:55.147Z,41.00
2018-05-14T01:24:22.818Z,29.70
2018-05-14T01:26:50.502Z,30.37
2018-05-14T01:29:17.993Z,44.27
2018-05-14T01:31:45.617Z,34.10
2018-05-14T01:34:13.126Z,50.50
2018-05-14T01:36:41.121Z,36.20
2018-05-14T01:39:08.616Z,37.73
2018-05-14T01:41:36.109Z,36.73
2018-05-14T01:44:04.315Z,32.67
2018-05-14T01:46:31.999Z,33.50
2018-05-14T01:48:59.626Z,49.93
2018-05-14T01:51:27.125Z,31.13
2018-05-14T01:53:54.618Z,33.37
2018-05-14T01:56:22.118Z,29.50
2018-05-14T01:58:49.613Z,31.30
2018-05-14T02:01:17.887Z,29.23
2018-05-14T02:03:45.380Z,30.03
2018-05-14T02:06:13.802Z,48.03
2018-05-14T02:08:41.299Z,31.03
2018-05-14T02:11:09.202Z,44.70
2018-05-14T02:13:36.784Z,34.40
2018-05-14T02:16:04.268Z,32.33
2018-05-14T02:18:31.764Z,32.73
2018-05-14T02:21:00.047Z,52.63
2018-05-14T02:23:29.047Z,37.23
2018-05-14T02:25:56.536Z,34.27
2018-05-14T02:28:24.250Z,35.30
2018-05-14T02:30:52.867Z,55.47
2018-05-14T02:33:20.411Z,41.07
2018-05-14T02:35:49.003Z,58.77
2018-05-14T02:38:17.283Z,38.70
2018-05-14T02:40:44.921Z,59.67
2018-05-14T02:43:12.423Z,39.43
2018-05-14T02:45:40.666Z,59.63
2018-05-14T02:48:08.481Z,43.80
2018-05-14T02:50:36.005Z,56.93
2018-05-14T02:53:03.860Z,41.00
2018-05-14T02:55:31.358Z,63.40
2018-05-14T02:57:58.852Z,41.27
2018-05-14T03:00:27.113Z,71.10
2018-05-14T03:02:54.727Z,50.20
2018-05-14T03:05:22.219Z,67.87
2018-05-14T03:07:49.720Z,48.13
2018-05-14T03:10:17.968Z,51.07
2018-05-14T03:12:45.461Z,43.73
2018-05-14T03:15:12.959Z,45.50
2018-05-14T03:17:40.479Z,67.53
2018-05-14T03:20:08.543Z,49.10
2018-05-14T03:22:36.223Z,74.83
2018-05-14T03:25:03.746Z,49.67
2018-05-14T03:27:31.214Z,71.40
2018-05-14T03:29:59.486Z,45.70
2018-05-14T03:32:27.768Z,67.50
2018-05-14T03:34:55.258Z,45.70
2018-05-14T03:37:22.993Z,69.57
2018-05-14T03:39:50.644Z,51.03
2018-05-14T03:42:18.901Z,64.20
2018-05-14T03:44:48.586Z,44.63
2018-05-14T03:47:16.094Z,40.83
2018-05-14T03:49:44.902Z,59.97
2018-05-14T03:52:12.392Z,41.83
2018-05-14T03:54:40.185Z,67.13
2018-05-14T03:57:07.901Z,43.23
2018-05-14T03:59:47.501Z,42.97
2018-05-14T04:05:21.025Z,40.53
2018-05-14T04:07:48.539Z,41.87
2018-05-14T04:10:16.047Z,60.03
2018-05-14T04:12:43.551Z,39.47
2018-05-14T04:15:11.731Z,38.77
2018-05-14T04:17:39.553Z,57.60
2018-05-14T04:20:07.054Z,37.13
2018-05-14T04:22:34.881Z,40.73
2018-05-14T04:25:03.274Z,39.03
2018-05-14T04:27:30.802Z,43.20
2018-05-14T04:29:58.312Z,65.63
2018-05-14T04:32:26.125Z,41.40
2018-05-14T04:34:54.417Z,47.97
2018-05-14T04:37:22.019Z,60.70
2018-05-14T04:39:49.543Z,40.40
2018-05-14T04:42:17.076Z,39.33
2018-05-14T04:44:45.577Z,45.80
2018-05-14T04:47:13.248Z,61.53
2018-05-14T04:49:40.777Z,45.37
2018-05-14T04:52:08.292Z,48.65
2018-05-14T04:54:35.855Z,66.00
2018-05-14T04:57:03.919Z,41.93
2018-05-14T04:59:31.429Z,59.43
2018-05-14T05:01:59.744Z,40.73
2018-05-14T05:04:27.264Z,58.13
2018-05-14T05:06:54.767Z,42.17
2018-05-14T05:09:22.403Z,43.47
2018-05-14T05:11:50.091Z,67.73
2018-05-14T05:14:17.744Z,41.70
2018-05-14T05:16:46.000Z,41.27
2018-05-14T05:19:13.506Z,37.40
2018-05-14T05:21:41.012Z,41.47
2018-05-14T05:24:09.283Z,42.87
2018-05-14T05:26:37.542Z,38.80
2018-05-14T05:29:05.111Z,41.50
2018-05-14T05:31:32.566Z,42.57
2018-05-14T05:34:00.981Z,41.13
2018-05-14T05:36:29.245Z,39.13
2018-05-14T05:38:56.810Z,39.47
2018-05-14T05:41:24.307Z,39.13
2018-05-14T05:43:52.730Z,37.03
2018-05-14T05:46:20.983Z,36.53
2018-05-14T05:48:48.492Z,36.63
2018-05-14T05:51:16.214Z,35.80
2018-05-14T05:53:44.485Z,35.80
2018-05-14T05:56:12.684Z,51.23
2018-05-14T05:58:40.180Z,35.37
2018-05-14T06:01:07.685Z,38.07
2018-05-14T06:03:36.284Z,38.43
2018-05-14T06:06:03.765Z,35.30
2018-05-14T06:08:31.281Z,35.30
2018-05-14T06:10:58.782Z,34.07
2018-05-14T06:13:26.332Z,34.03
2018-05-14T06:15:54.482Z,33.70
2018-05-14T06:18:22.815Z,34.43
2018-05-14T06:20:51.138Z,33.47
2018-05-14T06:23:18.643Z,32.37
2018-05-14T06:25:46.144Z,31.90
2018-05-14T06:28:13.655Z,31.80
2018-05-14T06:30:41.906Z,31.53
2018-05-14T06:33:09.405Z,33.23
2018-05-14T06:35:36.942Z,44.83
2018-05-14T06:38:04.439Z,32.73
2018-05-14T06:40:32.335Z,34.40
2018-05-14T06:42:59.865Z,32.87
2018-05-14T06:45:28.315Z,33.17
2018-05-14T06:47:55.820Z,48.83
2018-05-14T06:50:24.081Z,31.83
2018-05-14T06:52:52.386Z,33.23
2018-05-14T06:55:20.170Z,30.20
2018-05-14T06:57:47.659Z,30.40
2018-05-14T07:00:15.184Z,30.30
2018-05-14T07:02:42.838Z,43.87
2018-05-14T07:05:10.512Z,31.33
2018-05-14T07:07:38.035Z,29.47
2018-05-14T07:10:05.575Z,30.77
2018-05-14T07:12:34.357Z,30.27
2018-05-14T07:15:02.036Z,27.73
2018-05-14T07:17:29.401Z,31.67
2018-05-14T07:19:57.728Z,28.40
2018-05-14T07:22:25.426Z,29.87
2018-05-14T07:24:53.766Z,28.17
2018-05-14T07:27:22.145Z,27.87
2018-05-14T07:29:49.819Z,29.67
2018-05-14T07:32:17.337Z,39.93
2018-05-14T07:34:45.615Z,28.03
2018-05-14T07:37:13.113Z,28.83
2018-05-14T07:39:40.731Z,28.73
2018-05-14T07:42:08.292Z,26.93
2018-05-14T07:44:35.782Z,27.67
2018-05-14T07:47:03.810Z,27.37
2018-05-14T07:49:31.430Z,28.13
2018-05-14T07:51:58.934Z,28.93
2018-05-14T07:54:26.930Z,26.83
2018-05-14T07:56:54.335Z,28.13
2018-05-14T07:59:21.868Z,28.37
2018-05-14T08:01:50.814Z,28.90
2018-05-14T08:04:18.346Z,26.60
2018-05-14T08:06:48.289Z,27.27
2018-05-14T08:09:15.616Z,27.13
2018-05-14T08:11:45.719Z,27.53
2018-05-14T08:14:13.524Z,29.47
2018-05-14T08:16:41.117Z,28.97
2018-05-14T08:19:08.641Z,31.03
2018-05-14T08:21:36.155Z,30.07
2018-05-14T08:24:03.673Z,28.33
2018-05-14T08:26:31.174Z,30.57
2018-05-14T08:28:58.682Z,30.17
2018-05-14T08:31:26.226Z,29.87
2018-05-14T08:33:53.821Z,29.57
2018-05-14T08:36:21.333Z,33.97
2018-05-14T08:38:50.347Z,33.53
2018-05-14T08:41:17.903Z,31.27
2018-05-14T08:43:45.476Z,30.73
2018-05-14T08:46:13.277Z,30.87
2018-05-14T08:48:41.321Z,30.37
2018-05-14T08:51:08.876Z,33.53
2018-05-14T08:53:37.442Z,30.93
2018-05-14T08:56:04.937Z,26.50
2018-05-14T08:58:37.221Z,27.17
2018-05-14T09:01:04.942Z,27.10
2018-05-14T09:03:32.496Z,27.73
2018-05-14T09:05:59.999Z,28.17
2018-05-14T09:08:27.527Z,28.83
2018-05-14T09:10:55.227Z,28.63
2018-05-14T09:13:23.479Z,27.53
2018-05-14T09:15:51.105Z,27.47
2018-05-14T09:18:19.032Z,26.70
2018-05-14T09:20:47.796Z,26.60
2018-05-14T09:23:15.288Z,27.80
2018-05-14T09:25:43.565Z,25.60
2018-05-14T09:28:12.369Z,26.07
2018-05-14T09:30:39.867Z,24.13
2018-05-14T09:33:07.413Z,23.50
2018-05-14T09:35:34.985Z,24.93
2018-05-14T09:38:02.549Z,24.60
2018-05-14T09:40:30.585Z,24.10
2018-05-14T09:42:58.166Z,24.60
2018-05-14T09:45:25.692Z,24.00
2018-05-14T09:47:53.266Z,24.30
2018-05-14T09:50:21.588Z,23.97
2018-05-14T09:52:49.606Z,24.93
2018-05-14T09:55:17.395Z,23.90
2018-05-14T09:57:45.103Z,24.10
2018-05-14T10:00:12.592Z,23.47
2018-05-14T10:02:40.117Z,25.17
2018-05-14T10:05:08.034Z,25.57
2018-05-14T10:07:36.110Z,25.67
2018-05-14T10:10:03.625Z,27.57
2018-05-14T10:12:31.319Z,24.70
2018-05-14T10:14:59.097Z,27.37
2018-05-14T10:17:26.614Z,27.10
2018-05-14T10:19:54.116Z,26.40
2018-05-14T10:22:21.688Z,25.90
2018-05-14T10:24:49.222Z,24.93
2018-05-14T10:27:16.943Z,25.27
2018-05-14T10:29:44.990Z,24.37
2018-05-14T10:32:14.098Z,25.60
2018-05-14T10:34:42.364Z,25.50
2018-05-14T10:37:11.063Z,26.13
2018-05-14T10:39:38.673Z,26.57
2018-05-14T10:42:06.266Z,24.73
2018-05-14T10:44:35.203Z,27.37
2018-05-14T10:47:03.257Z,25.73
2018-05-14T10:49:30.818Z,25.17
2018-05-14T10:51:58.662Z,24.93
2018-05-14T10:54:26.504Z,25.80
2018-05-14T10:56:54.657Z,23.17
2018-05-14T10:59:22.744Z,24.33
2018-05-14T11:01:50.293Z,23.30
2018-05-14T11:04:18.271Z,24.73
2018-05-14T11:06:46.225Z,26.80
2018-05-14T11:09:14.359Z,27.33
2018-05-14T11:11:42.614Z,28.93
2018-05-14T11:14:10.506Z,29.17
2018-05-14T11:16:39.026Z,31.43
2018-05-14T11:19:06.813Z,29.63
2018-05-14T11:21:34.431Z,27.23
2018-05-14T11:24:01.978Z,30.60
2018-05-14T11:26:29.565Z,29.30
2018-05-14T11:28:57.385Z,29.90
2018-05-14T11:31:25.408Z,30.20
2018-05-14T11:33:54.059Z,28.87
2018-05-14T11:36:22.941Z,30.50
2018-05-14T11:38:51.445Z,30.07
2018-05-14T11:41:19.325Z,32.03
2018-05-14T11:43:46.947Z,32.20
2018-05-14T11:46:15.242Z,30.27
2018-05-14T11:48:42.774Z,30.87
2018-05-14T11:51:10.537Z,31.40
2018-05-14T11:53:38.843Z,32.37
2018-05-14T11:56:06.738Z,30.57
2018-05-14T11:58:34.702Z,30.30
2018-05-14T12:01:02.276Z,30.23
2018-05-14T12:03:29.859Z,30.07
2018-05-14T12:05:57.399Z,32.37
2018-05-14T12:08:25.324Z,33.00
2018-05-14T12:10:52.907Z,30.80
2018-05-14T12:13:20.410Z,31.60
2018-05-14T12:15:48.224Z,28.43
2018-05-14T12:18:15.730Z,28.93
2018-05-14T12:20:43.764Z,28.37
2018-05-14T12:23:11.629Z,29.30
2018-05-14T12:25:39.250Z,28.67
2018-05-14T12:28:06.753Z,31.27
2018-05-14T12:30:34.246Z,32.17
2018-05-14T12:33:01.760Z,31.97
2018-05-14T12:35:29.276Z,29.63
2018-05-14T12:37:56.799Z,28.77
2018-05-14T12:40:24.308Z,28.17
2018-05-14T12:42:51.821Z,26.47
2018-05-14T12:45:19.659Z,31.13
2018-05-14T12:47:47.158Z,28.00
2018-05-14T12:50:15.072Z,24.80
2018-05-14T12:52:42.572Z,23.27
2018-05-14T12:55:10.066Z,21.63
2018-05-14T12:57:37.818Z,19.57
2018-05-14T13:00:05.335Z,18.90
2018-05-14T13:02:32.856Z,17.90
2018-05-14T13:05:01.238Z,18.20
2018-05-14T13:07:46.609Z,16.70
2018-05-14T13:10:23.054Z,13.77
2018-05-14T13:12:53.154Z,12.43
2018-05-14T13:15:21.054Z,17.30
2018-05-14T13:17:48.619Z,11.77
2018-05-14T13:20:16.726Z,9.30
2018-05-14T13:22:44.284Z,6.90
2018-05-14T13:25:11.937Z,7.10
2018-05-14T13:27:39.440Z,7.30
2018-05-14T13:30:07.237Z,8.77
2018-05-14T13:32:34.870Z,10.47
2018-05-14T13:35:02.381Z,10.60
2018-05-14T13:37:30.228Z,6.20
2018-05-14T13:39:57.787Z,7.90
2018-05-14T13:42:26.064Z,6.60
2018-05-14T13:44:53.740Z,8.83
2018-05-14T13:47:22.015Z,8.50
2018-05-14T13:49:49.538Z,4.87
2018-05-14T13:52:18.218Z,6.37
2018-05-14T13:54:45.708Z,4.30
2018-05-14T13:57:14.525Z,3.73
2018-05-14T13:59:42.781Z,5.50
2018-05-14T14:02:10.294Z,6.77
2018-05-14T14:04:37.780Z,6.77
2018-05-14T14:07:05.732Z,7.00
2018-05-14T14:09:33.247Z,7.60
2018-05-14T14:12:00.747Z,5.03
2018-05-14T14:14:29.190Z,8.37
2018-05-14T14:16:56.721Z,4.50
2018-05-14T14:19:25.043Z,8.10
2018-05-14T14:21:52.910Z,6.67
2018-05-14T14:24:21.335Z,6.47
2018-05-14T14:26:48.926Z,6.17
2018-05-14T14:29:16.470Z,6.90
2018-05-14T14:31:44.142Z,8.97
2018-05-14T14:34:11.644Z,5.80
2018-05-14T14:36:39.233Z,6.87
2018-05-14T14:39:07.483Z,7.67
2018-05-14T14:41:35.202Z,8.63
2018-05-14T14:44:02.707Z,8.53
2018-05-14T14:46:30.409Z,9.13
2018-05-14T14:48:57.931Z,6.70
2018-05-14T14:51:27.585Z,5.13
2018-05-14T14:53:55.475Z,5.63
2018-05-14T14:56:23.017Z,10.67
2018-05-14T14:58:50.526Z,5.83
2018-05-14T15:01:18.040Z,7.83
2018-05-14T15:03:45.544Z,6.87
2018-05-14T15:06:13.144Z,7.47
2018-05-14T15:08:40.632Z,5.27
2018-05-14T15:11:08.159Z,5.47
2018-05-14T15:13:35.641Z,7.10
2018-05-14T15:16:03.142Z,9.00
2018-05-14T15:18:31.501Z,7.00
2018-05-14T15:20:58.985Z,6.27
2018-05-14T15:23:26.868Z,7.23
2018-05-14T15:25:54.360Z,3.67
2018-05-14T15:28:21.881Z,7.97
2018-05-14T15:30:49.420Z,3.77
2018-05-14T15:33:16.925Z,5.37
2018-05-14T15:35:45.217Z,3.93
2018-05-14T15:38:12.723Z,2.50
2018-05-14T15:40:41.060Z,5.43
2018-05-14T15:43:08.821Z,3.07
2018-05-14T15:45:36.371Z,5.37
2018-05-14T15:48:04.011Z,7.70
2018-05-14T15:50:32.313Z,6.53
2018-05-14T15:52:59.883Z,3.03
2018-05-14T15:55:27.412Z,4.83
2018-05-14T15:57:55.808Z,3.20
2018-05-14T16:00:25.626Z,2.50
2018-05-14T16:02:57.898Z,4.00
2018-05-14T16:05:25.661Z,6.50
2018-05-14T16:07:54.242Z,4.33
2018-05-14T16:10:22.060Z,8.73
2018-05-14T16:12:50.173Z,4.80
2018-05-14T16:15:25.044Z,3.93
2018-05-14T16:17:53.264Z,2.87
2018-05-14T16:20:22.324Z,2.97
2018-05-14T16:22:51.990Z,2.10
2018-05-14T16:25:20.150Z,7.30
2018-05-14T16:27:47.649Z,3.50
2018-05-14T16:30:15.295Z,4.17
2018-05-14T16:32:42.858Z,7.13
2018-05-14T16:35:10.380Z,6.20
2018-05-14T16:37:37.938Z,7.87
2018-05-14T16:40:05.435Z,7.17
2018-05-14T16:42:33.159Z,7.47
2018-05-14T16:45:01.036Z,5.13
2018-05-14T16:47:29.026Z,4.30
2018-05-14T16:49:57.166Z,6.50
2018-05-14T16:52:24.721Z,4.97
2018-05-14T16:54:52.297Z,3.53
2018-05-14T16:57:19.879Z,7.43
2018-05-14T16:59:48.024Z,5.97
2018-05-14T17:02:16.761Z,4.50
2018-05-14T17:04:44.433Z,4.33
2018-05-14T17:07:13.053Z,6.23
2018-05-14T17:09:40.553Z,4.03
2018-05-14T17:12:08.339Z,8.00
2018-05-14T17:14:35.892Z,6.07
2018-05-14T17:17:03.627Z,9.70
2018-05-14T17:19:31.367Z,2.43
2018-05-14T17:21:59.758Z,4.00
2018-05-14T17:24:27.405Z,6.30
2018-05-14T17:26:54.900Z,7.63
2018-05-14T17:29:22.629Z,6.33
2018-05-14T17:31:50.770Z,6.23
2018-05-14T17:34:19.437Z,4.13
2018-05-14T17:36:47.380Z,5.40
2018-05-14T17:39:15.258Z,4.23
2018-05-14T17:41:42.790Z,6.07
2018-05-14T17:44:10.343Z,3.83
2018-05-14T17:46:37.884Z,2.33
2018-05-14T17:49:06.121Z,3.53
2018-05-14T17:51:33.623Z,3.83
2018-05-14T17:54:02.093Z,6.93
2018-05-14T17:56:29.623Z,4.87
2018-05-14T17:58:58.156Z,6.07
2018-05-14T18:01:26.562Z,3.90
2018-05-14T18:03:54.069Z,4.90
2018-05-14T18:06:21.595Z,5.23
2018-05-14T18:08:49.127Z,4.53
2018-05-14T18:11:17.302Z,7.27
2018-05-14T18:13:45.788Z,4.17
2018-05-14T18:16:13.350Z,7.00
2018-05-14T18:18:40.888Z,8.30
2018-05-14T18:21:16.082Z,3.47
2018-05-14T18:23:48.133Z,2.57
2018-05-14T18:26:17.562Z,5.37
2018-05-14T18:28:49.863Z,3.80
2018-05-14T18:31:23.392Z,3.70
2018-05-14T18:33:53.684Z,6.37
2018-05-14T18:36:21.215Z,4.73
2018-05-14T18:38:48.838Z,4.00
2018-05-14T18:41:16.345Z,2.77
2018-05-14T18:43:44.759Z,4.37
2018-05-14T18:46:12.463Z,4.80
2018-05-14T18:48:39.987Z,5.27
2018-05-14T18:51:07.527Z,7.07
2018-05-14T18:53:35.883Z,3.47
2018-05-14T18:56:05.415Z,6.27
2018-05-14T18:58:32.968Z,4.80
2018-05-14T19:01:01.424Z,6.57
2018-05-14T19:03:29.080Z,3.67
2018-05-14T19:05:56.958Z,4.97
2018-05-14T19:08:25.942Z,4.33
2018-05-14T19:10:58.959Z,3.40
2018-05-14T19:13:27.127Z,3.57
2018-05-14T19:16:00.661Z,3.60
2018-05-14T19:18:28.776Z,4.20
2018-05-14T19:20:56.305Z,4.90
2018-05-14T19:23:29.874Z,4.47
2018-05-14T19:25:57.374Z,4.13
2018-05-14T19:28:30.996Z,5.47
2018-05-14T19:30:59.265Z,5.80
2018-05-14T19:33:32.930Z,5.13
2018-05-14T19:36:01.743Z,7.10
2018-05-14T19:38:29.339Z,4.40
2018-05-14T19:40:57.263Z,3.40
2018-05-14T19:43:24.902Z,8.53
2018-05-14T19:45:52.420Z,4.00
2018-05-14T19:48:20.199Z,5.93
2018-05-14T19:50:47.721Z,4.43
2018-05-14T19:53:15.200Z,3.47
2018-05-14T19:55:42.745Z,5.57
2018-05-14T19:58:11.746Z,6.67
2018-05-14T20:00:39.302Z,7.20
2018-05-14T20:03:07.179Z,3.50
2018-05-14T20:05:35.808Z,4.30
2018-05-14T20:08:04.119Z,6.77
2018-05-14T20:10:31.720Z,5.43
2018-05-14T20:12:59.230Z,8.83
2018-05-14T20:15:26.730Z,4.77
2018-05-14T20:17:54.995Z,5.87
2018-05-14T20:20:22.568Z,10.07
2018-05-14T20:22:50.115Z,4.63
2018-05-14T20:25:18.388Z,8.73
2018-05-14T20:27:45.905Z,4.20
2018-05-14T20:30:13.410Z,5.53
2018-05-14T20:32:40.913Z,5.90
2018-05-14T20:35:08.445Z,4.60
2018-05-14T20:37:35.987Z,3.73
2018-05-14T20:40:04.287Z,6.13
2018-05-14T20:42:32.331Z,4.13
2018-05-14T20:44:59.923Z,6.73
2018-05-14T20:47:27.434Z,7.17
2018-05-14T20:49:54.947Z,4.67
2018-05-14T20:52:22.490Z,8.73
2018-05-14T20:54:51.337Z,6.33
2018-05-14T20:57:18.851Z,8.57
2018-05-14T20:59:46.392Z,4.73
2018-05-14T21:02:13.926Z,6.93
2018-05-14T21:04:42.008Z,5.63
2018-05-14T21:07:10.262Z,5.30
2018-05-14T21:09:38.041Z,4.97
2018-05-14T21:12:06.673Z,5.10
2018-05-14T21:14:34.231Z,2.97
2018-05-14T21:17:02.274Z,6.17
2018-05-14T21:19:29.794Z,4.87
2018-05-14T21:21:57.299Z,7.53
2018-05-14T21:24:25.440Z,5.87
2018-05-14T21:26:53.723Z,6.43
2018-05-14T21:29:21.241Z,5.87
2018-05-14T21:31:48.723Z,8.00
2018-05-14T21:34:16.394Z,6.43
2018-05-14T21:36:44.646Z,7.13
2018-05-14T21:39:12.167Z,4.53
2018-05-14T21:41:39.658Z,9.27
2018-05-14T21:44:07.145Z,4.00
2018-05-14T21:46:34.636Z,5.37
2018-05-14T21:49:02.177Z,9.33
2018-05-14T21:51:29.663Z,6.57
2018-05-14T21:53:57.157Z,7.57
2018-05-14T21:56:25.156Z,5.50
